createdAt,value
2019-04-03T00:02:04.048Z,10.40
2019-04-03T00:04:34.385Z,10.40
2019-04-03T00:07:03.857Z,10.30
2019-04-03T00:09:33.031Z,10.30
2019-04-03T00:14:29.664Z,10.20
2019-04-03T00:16:58.071Z,10.20
2019-04-03T00:19:26.603Z,10.20
2019-04-03T00:21:55.161Z,10.20
2019-04-03T00:24:23.646Z,10.20
2019-04-03T00:26:52.839Z,10.20
2019-04-03T00:29:22.642Z,10.20
2019-04-03T00:34:22.973Z,10.30
2019-04-03T00:36:53.034Z,10.30
2019-04-03T00:39:23.959Z,10.40
2019-04-03T00:41:52.928Z,10.40
2019-04-03T00:49:44.334Z,10.40
2019-04-03T00:54:41.679Z,10.40
2019-04-03T00:57:10.168Z,10.40
2019-04-03T00:59:38.748Z,10.40
2019-04-03T01:02:07.241Z,10.40
2019-04-03T01:04:36.351Z,10.40
2019-04-03T01:09:33.700Z,10.40
2019-04-03T01:12:02.097Z,10.40
2019-04-03T01:14:31.636Z,10.40
2019-04-03T01:19:28.679Z,10.40
2019-04-03T01:21:57.158Z,10.40
2019-04-03T01:27:04.907Z,10.40
2019-04-03T01:29:33.441Z,10.40
2019-04-03T01:32:01.837Z,10.40
2019-04-03T01:34:30.254Z,10.40
2019-04-03T01:36:58.653Z,10.40
2019-04-03T01:39:27.073Z,10.40
2019-04-03T01:41:55.609Z,10.40
2019-04-03T01:44:24.705Z,10.40
2019-04-03T01:46:53.740Z,10.40
2019-04-03T01:49:22.186Z,10.40
2019-04-03T01:51:50.586Z,10.30
2019-04-03T01:54:19.007Z,10.40
2019-04-03T01:56:47.409Z,10.40
2019-04-03T01:59:15.858Z,10.40
2019-04-03T02:04:13.085Z,10.40
2019-04-03T02:06:43.498Z,10.40
2019-04-03T02:09:12.430Z,10.40
2019-04-03T02:11:42.384Z,10.50
2019-04-03T02:14:10.859Z,10.50
2019-04-03T02:16:39.460Z,10.50
2019-04-03T02:19:08.189Z,10.50
2019-04-03T02:24:50.128Z,10.50
2019-04-03T02:27:18.532Z,10.50
2019-04-03T02:29:49.616Z,10.40
2019-04-03T02:32:18.275Z,10.40
2019-04-03T02:34:46.919Z,10.40
2019-04-03T02:37:16.874Z,10.40
2019-04-03T02:39:45.545Z,10.30
2019-04-03T02:42:14.215Z,10.30
2019-04-03T02:44:42.627Z,10.20
2019-04-03T02:47:11.034Z,10.20
2019-04-03T02:49:41.334Z,10.30
2019-04-03T02:52:10.012Z,10.30
2019-04-03T02:55:04.593Z,10.20
2019-04-03T03:02:30.167Z,9.70
2019-04-03T03:07:36.409Z,9.60
2019-04-03T03:10:07.110Z,9.60
2019-04-03T03:12:38.344Z,9.60
2019-04-03T03:17:46.206Z,9.60
2019-04-03T03:20:16.515Z,9.70
2019-04-03T03:27:43.354Z,9.60
2019-04-03T03:36:02.362Z,9.50
2019-04-03T03:38:31.589Z,9.40
2019-04-03T03:41:00.112Z,9.40
2019-04-03T03:43:28.810Z,9.30
2019-04-03T03:45:57.866Z,9.30
2019-04-03T03:48:26.962Z,9.30
2019-04-03T03:50:58.031Z,9.40
2019-04-03T03:53:26.586Z,9.40
2019-04-03T03:58:22.249Z,9.40
2019-04-03T04:03:20.787Z,9.40
2019-04-03T04:05:53.823Z,9.40
2019-04-03T04:08:20.484Z,9.20
2019-04-03T04:10:50.141Z,9.00
2019-04-03T04:16:16.956Z,8.80
2019-04-03T04:18:45.479Z,8.80
2019-04-03T04:21:15.116Z,8.80
2019-04-03T04:23:44.402Z,8.80
2019-04-03T04:26:13.565Z,8.90
2019-04-03T04:33:40.384Z,8.80
2019-04-03T04:36:08.781Z,8.80
2019-04-03T04:38:37.419Z,8.80
2019-04-03T04:41:05.943Z,8.90
2019-04-03T04:43:34.679Z,8.90
2019-04-03T04:48:31.161Z,8.80
2019-04-03T04:50:59.591Z,8.70
2019-04-03T04:53:29.870Z,8.70
2019-04-03T04:55:58.144Z,8.60
2019-04-03T05:00:54.916Z,8.60
2019-04-03T05:03:23.311Z,8.60
2019-04-03T05:05:51.704Z,8.60
2019-04-03T05:08:20.189Z,8.60
2019-04-03T05:13:18.017Z,8.70
2019-04-03T05:15:46.414Z,8.70
2019-04-03T05:20:43.187Z,8.80
2019-04-03T05:28:08.547Z,8.90
2019-04-03T05:30:56.543Z,8.90
2019-04-03T05:40:51.160Z,9.00
2019-04-03T05:43:19.595Z,9.00
2019-04-03T05:53:14.062Z,9.40
2019-04-03T05:55:42.457Z,9.40
2019-04-03T05:58:11.031Z,9.50
2019-04-03T06:00:39.556Z,9.70
2019-04-03T06:03:07.958Z,9.90
2019-04-03T06:05:36.419Z,9.90
2019-04-03T06:08:05.266Z,10.00
2019-04-03T06:10:36.544Z,10.10
2019-04-03T06:15:33.771Z,10.40
2019-04-03T06:18:02.166Z,10.60
2019-04-03T06:20:30.731Z,10.90
2019-04-03T06:22:59.151Z,11.00
2019-04-03T06:25:30.018Z,11.10
2019-04-03T06:30:26.365Z,11.30
2019-04-03T06:32:55.410Z,11.40
2019-04-03T06:40:22.177Z,11.60
2019-04-03T06:42:50.863Z,11.60
2019-04-03T06:45:19.588Z,11.60
2019-04-03T06:50:17.567Z,11.60
2019-04-03T06:52:46.346Z,11.60
2019-04-03T07:00:11.744Z,11.90
2019-04-03T07:02:40.191Z,12.10
2019-04-03T07:07:38.421Z,12.70
2019-04-03T07:12:36.929Z,12.90
2019-04-03T07:15:07.185Z,13.20
2019-04-03T07:20:13.517Z,14.90
2019-04-03T07:22:35.250Z,15.70
2019-04-03T07:25:04.700Z,16.20
2019-04-03T07:27:33.463Z,16.50
2019-04-03T07:30:04.315Z,16.80
2019-04-03T07:32:32.864Z,17.10
2019-04-03T07:35:02.848Z,17.60
2019-04-03T07:37:31.533Z,17.90
2019-04-03T07:40:00.138Z,18.30
2019-04-03T07:44:56.883Z,18.40
2019-04-03T07:49:53.472Z,18.70
2019-04-03T07:59:47.885Z,19.00
2019-04-03T08:02:16.285Z,19.10
2019-04-03T08:04:44.829Z,19.20
2019-04-03T08:07:13.533Z,19.40
2019-04-03T08:10:01.684Z,19.60
2019-04-03T08:14:58.436Z,20.20
2019-04-03T08:17:26.876Z,20.50
2019-04-03T08:19:55.338Z,20.30
2019-04-03T08:25:12.564Z,20.20
2019-04-03T08:27:41.323Z,20.00
2019-04-03T08:30:11.029Z,20.20
2019-04-03T08:37:40.629Z,20.70
2019-04-03T08:42:37.378Z,20.90
2019-04-03T08:45:10.515Z,21.00
2019-04-03T08:47:39.360Z,21.20
2019-04-03T08:50:10.487Z,21.40
2019-04-03T08:52:39.641Z,21.60
2019-04-03T08:55:09.354Z,22.00
2019-04-03T08:57:37.782Z,22.20
2019-04-03T09:02:36.157Z,20.40
2019-04-03T09:07:34.343Z,19.70
2019-04-03T09:12:31.310Z,19.20
2019-04-03T09:15:00.013Z,19.40
2019-04-03T09:27:23.030Z,21.00
2019-04-03T09:29:51.738Z,21.40
2019-04-03T09:34:50.010Z,21.30
2019-04-03T09:37:18.756Z,21.50
2019-04-03T09:39:47.311Z,22.00
2019-04-03T09:42:16.295Z,22.10
2019-04-03T09:44:44.734Z,22.50
2019-04-03T09:49:43.754Z,23.20
2019-04-03T09:52:11.498Z,23.50
2019-04-03T09:54:41.597Z,23.70
2019-04-03T09:57:10.401Z,23.90
2019-04-03T09:59:38.888Z,24.10
2019-04-03T10:04:35.560Z,23.70
2019-04-03T10:07:04.171Z,23.30
2019-04-03T10:12:20.877Z,23.90
2019-04-03T10:14:50.476Z,24.40
2019-04-03T10:22:15.277Z,24.60
2019-04-03T10:24:44.022Z,24.10
2019-04-03T10:27:12.658Z,24.30
2019-04-03T10:29:41.213Z,24.20
2019-04-03T10:32:09.780Z,23.40
2019-04-03T10:34:38.175Z,23.30
2019-04-03T10:42:03.783Z,23.10
2019-04-03T10:47:00.488Z,22.00
2019-04-03T10:49:31.537Z,21.20
2019-04-03T10:54:27.266Z,19.60
2019-04-03T10:56:55.906Z,18.80
2019-04-03T10:59:24.313Z,18.70
2019-04-03T11:04:20.887Z,18.40
2019-04-03T11:06:49.299Z,18.40
2019-04-03T11:09:17.797Z,18.40
2019-04-03T11:11:46.393Z,18.50
2019-04-03T11:14:15.104Z,18.20
2019-04-03T11:16:46.469Z,18.10
2019-04-03T11:21:44.115Z,18.40
2019-04-03T11:24:12.367Z,18.40
2019-04-03T11:26:40.956Z,18.50
2019-04-03T11:29:10.425Z,18.30
2019-04-03T11:31:41.887Z,18.30
2019-04-03T11:36:38.191Z,18.40
2019-04-03T11:39:14.927Z,18.50
2019-04-03T11:41:39.564Z,18.60
2019-04-03T11:44:08.260Z,18.60
2019-04-03T11:46:36.988Z,18.50
2019-04-03T11:49:05.568Z,18.50
2019-04-03T11:51:34.533Z,18.60
2019-04-03T11:56:31.926Z,19.00
2019-04-03T11:59:00.600Z,18.80
2019-04-03T12:01:29.755Z,19.10
2019-04-03T12:03:58.421Z,19.50
2019-04-03T12:06:27.400Z,19.60
2019-04-03T12:08:55.907Z,19.60
2019-04-03T12:11:24.304Z,19.60
2019-04-03T12:13:52.758Z,19.20
2019-04-03T12:16:24.013Z,19.00
2019-04-03T12:18:51.628Z,19.10
2019-04-03T12:21:20.357Z,19.10
2019-04-03T12:26:19.810Z,19.10
2019-04-03T12:28:49.031Z,19.20
2019-04-03T12:31:17.421Z,19.20
2019-04-03T12:33:53.154Z,19.20
2019-04-03T12:36:15.977Z,19.30
2019-04-03T12:38:44.509Z,19.40
2019-04-03T12:41:13.412Z,19.40
2019-04-03T12:46:10.265Z,19.60
2019-04-03T12:48:38.986Z,19.50
2019-04-03T12:51:07.624Z,19.20
2019-04-03T12:53:36.031Z,19.00
2019-04-03T12:56:04.440Z,18.90
2019-04-03T12:58:52.186Z,18.80
2019-04-03T13:01:20.842Z,18.90
2019-04-03T13:04:08.818Z,18.90
2019-04-03T13:06:40.600Z,19.00
2019-04-03T13:09:09.398Z,19.20
2019-04-03T13:11:37.855Z,19.50
2019-04-03T13:14:06.320Z,19.40
2019-04-03T13:16:34.709Z,19.40
2019-04-03T13:19:24.542Z,19.20
2019-04-03T13:21:52.696Z,19.10
2019-04-03T13:24:21.427Z,19.10
2019-04-03T13:26:50.402Z,18.90
2019-04-03T13:29:20.845Z,18.90
2019-04-03T13:31:49.051Z,18.80
2019-04-03T13:34:17.630Z,18.60
2019-04-03T13:36:46.211Z,18.50
2019-04-03T13:39:14.779Z,18.60
2019-04-03T13:41:43.384Z,18.50
2019-04-03T13:44:12.386Z,18.40
2019-04-03T13:46:40.933Z,18.40
2019-04-03T13:49:09.564Z,18.40
2019-04-03T13:51:38.385Z,18.50
2019-04-03T13:54:08.000Z,18.40
2019-04-03T13:56:37.029Z,18.40
2019-04-03T13:59:05.885Z,18.40
2019-04-03T14:01:34.700Z,18.40
2019-04-03T14:04:03.686Z,18.30
2019-04-03T14:09:00.678Z,18.30
2019-04-03T14:11:30.920Z,18.30
2019-04-03T14:13:59.512Z,18.30
2019-04-03T14:16:27.936Z,18.30
2019-04-03T14:18:56.646Z,18.30
2019-04-03T14:21:27.592Z,18.30
2019-04-03T14:23:55.520Z,18.30
2019-04-03T14:26:24.010Z,18.20
2019-04-03T14:28:52.476Z,18.20
2019-04-03T14:31:32.724Z,18.20
2019-04-03T14:33:51.106Z,18.20
2019-04-03T14:36:19.659Z,18.20
2019-04-03T14:43:46.399Z,18.30
2019-04-03T14:46:17.302Z,18.10
2019-04-03T14:48:44.966Z,17.90
2019-04-03T14:51:13.472Z,17.90
2019-04-03T14:53:42.381Z,17.80
2019-04-03T14:58:39.273Z,17.70
2019-04-03T15:01:07.920Z,17.70
2019-04-03T15:03:37.109Z,17.70
2019-04-03T15:06:05.860Z,17.70
2019-04-03T15:08:34.631Z,17.60
2019-04-03T15:16:01.202Z,17.50
2019-04-03T15:18:30.227Z,17.40
2019-04-03T15:20:58.807Z,17.40
2019-04-03T15:23:27.252Z,17.40
2019-04-03T15:25:55.811Z,17.30
2019-04-03T15:28:24.444Z,17.30
2019-04-03T15:30:52.862Z,17.20
2019-04-03T15:33:23.039Z,17.10
2019-04-03T15:35:51.419Z,17.10
2019-04-03T15:40:48.864Z,17.10
2019-04-03T15:45:45.826Z,17.00
2019-04-03T15:50:42.383Z,16.90
2019-04-03T15:53:10.796Z,16.90
2019-04-03T15:55:39.580Z,16.80
2019-04-03T15:58:08.329Z,16.80
2019-04-03T16:00:36.998Z,16.70
2019-04-03T16:05:35.997Z,16.70
2019-04-03T16:08:04.511Z,16.60
2019-04-03T16:10:32.916Z,16.50
2019-04-03T16:13:01.326Z,16.50
2019-04-03T16:15:29.910Z,16.50
2019-04-03T16:17:58.958Z,16.50
2019-04-03T16:20:27.667Z,16.40
2019-04-03T16:22:56.214Z,16.40
2019-04-03T16:25:24.669Z,16.40
2019-04-03T16:27:53.322Z,16.40
2019-04-03T16:30:41.335Z,16.30
2019-04-03T16:33:19.843Z,16.20
2019-04-03T16:35:39.887Z,16.20
2019-04-03T16:38:08.352Z,16.20
2019-04-03T16:40:38.269Z,16.10
2019-04-03T16:43:06.979Z,16.10
2019-04-03T16:45:37.737Z,16.00
2019-04-03T16:48:05.729Z,16.00
2019-04-03T16:50:34.741Z,15.90
2019-04-03T16:53:03.479Z,15.80
2019-04-03T16:55:32.912Z,15.70
2019-04-03T16:58:01.363Z,15.70
2019-04-03T17:00:29.836Z,15.60
2019-04-03T17:02:58.354Z,15.60
2019-04-03T17:05:26.856Z,15.50
2019-04-03T17:07:55.657Z,15.50
2019-04-03T17:10:24.219Z,15.50
2019-04-03T17:12:54.685Z,15.40
2019-04-03T17:15:23.611Z,15.40
2019-04-03T17:17:52.083Z,15.40
2019-04-03T17:20:39.829Z,15.40
2019-04-03T17:23:10.986Z,15.30
2019-04-03T17:28:10.202Z,15.30
2019-04-03T17:30:38.339Z,15.20
2019-04-03T17:33:06.756Z,15.20
2019-04-03T17:35:35.253Z,15.20
2019-04-03T17:38:03.863Z,15.20
2019-04-03T17:43:00.402Z,15.00
2019-04-03T17:45:28.862Z,14.90
2019-04-03T17:52:53.440Z,14.80
2019-04-03T17:55:21.853Z,14.70
2019-04-03T17:57:50.321Z,14.70
2019-04-03T18:02:49.967Z,14.50
2019-04-03T18:05:19.211Z,14.50
2019-04-03T18:07:47.612Z,14.40
2019-04-03T18:10:16.169Z,14.40
2019-04-03T18:12:45.793Z,14.40
2019-04-03T18:17:47.345Z,14.30
2019-04-03T18:20:16.531Z,14.30
2019-04-03T18:22:44.948Z,14.20
2019-04-03T18:25:13.634Z,14.20
2019-04-03T18:32:46.644Z,14.10
2019-04-03T18:35:15.344Z,14.10
2019-04-03T18:40:13.879Z,14.00
2019-04-03T18:42:42.125Z,14.00
2019-04-03T18:45:24.076Z,14.00
2019-04-03T18:47:43.843Z,14.00
2019-04-03T18:52:39.529Z,13.80
2019-04-03T18:55:08.475Z,13.80
2019-04-03T18:57:36.920Z,13.70
2019-04-03T19:00:08.406Z,13.70
2019-04-03T19:02:37.424Z,13.70
2019-04-03T19:05:09.877Z,13.60
2019-04-03T19:07:37.963Z,13.60
2019-04-03T19:10:07.827Z,13.60
2019-04-03T19:17:36.477Z,13.60
2019-04-03T19:20:10.800Z,13.50
2019-04-03T19:32:36.479Z,13.40
2019-04-03T19:37:38.090Z,13.30
2019-04-03T19:40:09.438Z,13.30
2019-04-03T19:42:37.143Z,13.20
2019-04-03T19:45:12.825Z,13.20
2019-04-03T19:50:09.475Z,13.10
2019-04-03T19:52:41.584Z,13.00
2019-04-03T19:55:08.465Z,13.00
2019-04-03T19:57:36.885Z,12.90
2019-04-03T20:03:03.553Z,12.80
2019-04-03T20:08:00.107Z,12.70
2019-04-03T20:10:28.557Z,12.60
2019-04-03T20:12:56.948Z,12.60
2019-04-03T20:17:54.901Z,12.50
2019-04-03T20:20:23.673Z,12.50
2019-04-03T20:22:52.135Z,12.50
2019-04-03T20:27:51.367Z,12.40
2019-04-03T20:30:18.861Z,12.30
2019-04-03T20:32:47.311Z,12.10
2019-04-03T20:35:17.883Z,11.90
2019-04-03T20:40:20.000Z,11.60
2019-04-03T20:42:48.451Z,11.30
2019-04-03T20:45:17.148Z,11.10
2019-04-03T20:47:47.055Z,10.80
2019-04-03T20:50:16.273Z,10.60
2019-04-03T20:52:46.272Z,10.50
2019-04-03T20:55:15.086Z,10.30
2019-04-03T20:57:54.993Z,10.10
2019-04-03T21:00:18.041Z,10.00
2019-04-03T21:05:13.214Z,9.90
2019-04-03T21:10:10.076Z,9.90
2019-04-03T21:12:38.543Z,9.90
2019-04-03T21:17:36.787Z,9.80
2019-04-03T21:20:08.571Z,9.90
2019-04-03T21:22:38.533Z,10.00
2019-04-03T21:27:39.835Z,10.00
2019-04-03T21:30:09.116Z,9.80
2019-04-03T21:32:37.630Z,9.70
2019-04-03T21:37:34.114Z,9.80
2019-04-03T21:40:04.949Z,9.80
2019-04-03T21:42:32.676Z,9.80
2019-04-03T21:45:02.801Z,9.80
2019-04-03T21:47:31.221Z,9.80
2019-04-03T21:49:59.628Z,9.80
2019-04-03T21:52:28.037Z,9.80
2019-04-03T21:54:58.398Z,9.80
2019-04-03T21:57:26.584Z,9.80
2019-04-03T21:59:54.982Z,9.70
2019-04-03T22:02:23.391Z,9.80
2019-04-03T22:04:51.894Z,9.80
2019-04-03T22:07:21.959Z,9.70
2019-04-03T22:09:50.390Z,9.60
2019-04-03T22:12:18.846Z,9.60
2019-04-03T22:17:15.304Z,9.60
2019-04-03T22:24:39.958Z,9.50
2019-04-03T22:27:11.303Z,9.60
2019-04-03T22:37:04.478Z,9.50
2019-04-03T22:39:32.876Z,9.40
2019-04-03T22:44:29.427Z,9.30
2019-04-03T22:46:57.921Z,9.20
2019-04-03T22:49:26.369Z,9.20
2019-04-03T22:51:54.784Z,9.10
2019-04-03T22:56:51.304Z,9.10
2019-04-03T22:59:19.714Z,9.10
2019-04-03T23:01:48.185Z,9.10
2019-04-03T23:04:16.589Z,9.10
2019-04-03T23:06:44.990Z,9.10
2019-04-03T23:09:13.407Z,9.10
2019-04-03T23:11:41.796Z,9.10
2019-04-03T23:14:10.208Z,9.00
2019-04-03T23:21:34.807Z,8.90
2019-04-03T23:26:32.068Z,8.70
2019-04-03T23:29:03.018Z,8.60
2019-04-03T23:33:59.596Z,8.60
2019-04-03T23:38:56.718Z,8.50
2019-04-03T23:41:25.554Z,8.50
2019-04-03T23:43:53.963Z,8.50
2019-04-03T23:46:22.458Z,8.40
2019-04-03T23:48:50.871Z,8.30
2019-04-03T23:51:23.553Z,8.30
2019-04-03T23:56:38.616Z,8.20
2019-04-03T23:59:05.759Z,8.20
